Time;durP1;ratioP1;P1;durP2;ratioP2;P2;SDS_P1;SDS_P2;PMS_P1;PMS_P2;Temp;Humidity;BMP_temperature;BMP_pressure;BME280_temperature;BME280_humidity;BME280_pressure;Samples;Min_cycle;Max_cycle;Signal;HPM_P1;HPM_P2
2023/05/01 00:01:04;;;;;;;5.95;2.95;;;;;;;9.99;80.78;99438.94;4954638;28;20064;-62
2023/05/01 00:03:31;;;;;;;4.60;2.80;;;;;;;9.99;80.50;99440.81;4943427;28;20089;-62
2023/05/01 00:06:02;;;;;;;5.72;2.67;;;;;;;10.03;80.93;99440.09;4949379;28;20044;-62
2023/05/01 00:08:30;;;;;;;8.02;3.00;;;;;;;10.00;81.43;99429.84;4943411;28;20050;-62
2023/05/01 00:11:04;;;;;;;4.43;2.47;;;;;;;9.97;80.71;99429.50;4940084;28;20071;-62
2023/05/01 00:13:32;;;;;;;5.65;3.00;;;;;;;9.95;82.50;99427.06;4939885;28;20146;-62
2023/05/01 00:15:59;;;;;;;5.85;3.35;;;;;;;9.80;80.99;99426.72;4939640;28;20043;-62
2023/05/01 00:18:27;;;;;;;4.45;2.90;;;;;;;9.75;81.46;99422.06;4948768;28;20058;-62
2023/05/01 00:20:54;;;;;;;6.65;3.20;;;;;;;9.72;81.43;99417.97;4944867;28;20051;-62
2023/05/01 00:23:21;;;;;;;4.18;2.67;;;;;;;9.83;81.10;99419.03;4942873;28;20573;-62
2023/05/01 00:25:48;;;;;;;5.10;2.90;;;;;;;9.95;80.51;99416.34;4938843;28;20070;-62
2023/05/01 00:28:18;;;;;;;5.78;2.92;;;;;;;9.98;79.02;99410.53;4948894;28;20063;-62
2023/05/01 00:30:45;;;;;;;6.50;3.13;;;;;;;9.87;81.43;99414.84;4946799;28;20139;-62
2023/05/01 00:33:13;;;;;;;5.25;2.97;;;;;;;9.83;81.15;99405.63;4947064;28;20391;-62
2023/05/01 00:35:40;;;;;;;6.38;2.80;;;;;;;9.94;80.76;99407.50;4942003;28;20043;-62
2023/05/01 00:38:07;;;;;;;4.78;3.10;;;;;;;9.95;81.87;99402.97;4943392;28;20122;-62
2023/05/01 00:40:42;;;;;;;6.40;3.20;;;;;;;9.96;80.91;99399.25;4954904;28;20046;-62
2023/05/01 00:43:11;;;;;;;6.10;3.15;;;;;;;9.90;81.37;99397.50;4942803;28;20510;-62
2023/05/01 00:45:39;;;;;;;5.40;3.05;;;;;;;9.80;82.87;99402.63;4947091;28;20129;-62
2023/05/01 00:48:06;;;;;;;5.57;2.90;;;;;;;9.67;82.79;99398.31;4944054;28;20071;-63
2023/05/01 00:50:38;;;;;;;6.93;3.13;;;;;;;9.72;83.55;99388.53;4942199;28;20130;-62
2023/05/01 00:53:05;;;;;;;5.88;3.28;;;;;;;9.65;84.07;99387.84;4953426;28;20086;-62
2023/05/01 00:55:35;;;;;;;5.93;2.90;;;;;;;9.70;86.67;99382.59;4945166;28;20062;-62
2023/05/01 00:58:02;;;;;;;6.65;3.65;;;;;;;9.50;85.25;99387.47;4941493;28;20469;-62
2023/05/01 01:00:29;;;;;;;5.30;3.13;;;;;;;9.57;84.75;99377.47;4947077;28;20058;-62
2023/05/01 01:02:58;;;;;;;5.53;3.05;;;;;;;9.59;87.12;99369.22;4947117;28;20126;-62
2023/05/01 01:05:26;;;;;;;5.97;3.20;;;;;;;9.55;85.28;99373.41;4944909;28;20042;-62
2023/05/01 01:07:59;;;;;;;6.38;3.42;;;;;;;9.31;85.57;99373.41;4939430;28;20054;-62
2023/05/01 01:10:30;;;;;;;5.05;2.75;;;;;;;9.26;86.21;99366.06;4950476;28;20050;-62
2023/05/01 01:13:08;;;;;;;5.55;3.63;;;;;;;9.33;87.26;99365.13;4941031;28;20036;-62
2023/05/01 01:15:42;;;;;;;7.00;3.50;;;;;;;9.42;84.39;99369.09;4941814;28;20052;-62
2023/05/01 01:18:13;;;;;;;6.15;3.20;;;;;;;9.36;84.06;99364.66;4945824;28;20067;-62
2023/05/01 01:20:44;;;;;;;7.82;2.92;;;;;;;9.33;85.77;99362.44;4950158;28;20031;-62
2023/05/01 01:23:36;;;;;;;7.65;3.08;;;;;;;9.03;85.55;99350.75;4939758;28;20043;-62
2023/05/01 01:26:11;;;;;;;6.63;3.28;;;;;;;8.95;87.78;99351.09;4945379;28;20054;-62
2023/05/01 01:29:14;;;;;;;5.63;3.30;;;;;;;9.19;86.91;99351.97;4947485;28;20050;-62
2023/05/01 01:31:47;;;;;;;6.75;3.75;;;;;;;8.98;87.24;99347.16;4921298;28;20062;-62
2023/05/01 01:34:18;;;;;;;7.57;3.45;;;;;;;9.01;86.82;99341.34;4943902;28;20047;-62
2023/05/01 01:36:48;;;;;;;4.80;3.55;;;;;;;9.07;86.74;99340.44;4940563;28;20055;-62
2023/05/01 01:39:23;;;;;;;6.38;3.45;;;;;;;9.06;86.03;99341.47;4948419;28;20508;-62
2023/05/01 01:41:51;;;;;;;6.32;3.40;;;;;;;9.09;85.37;99342.91;4950203;28;20063;-62
2023/05/01 01:44:20;;;;;;;7.38;3.55;;;;;;;9.03;86.69;99342.75;4943476;28;20470;-62
2023/05/01 01:46:49;;;;;;;8.33;3.40;;;;;;;9.01;87.64;99341.34;4945332;28;20051;-62
2023/05/01 01:49:19;;;;;;;5.32;3.45;;;;;;;8.74;87.32;99340.94;4940525;28;20048;-62
2023/05/01 01:51:50;;;;;;;5.22;3.30;;;;;;;8.74;87.33;99336.41;4933677;29;20044;-62
2023/05/01 01:54:19;;;;;;;9.57;3.75;;;;;;;8.57;88.10;99338.91;4941304;28;20102;-62
2023/05/01 01:56:49;;;;;;;5.35;3.40;;;;;;;8.35;90.09;99333.19;4930468;29;20416;-62
2023/05/01 01:59:16;;;;;;;5.97;3.47;;;;;;;8.72;88.11;99338.50;4923570;28;21727;-63
2023/05/01 02:01:43;;;;;;;6.53;3.45;;;;;;;8.69;87.45;99325.59;4943019;28;20094;-62
2023/05/01 02:04:10;;;;;;;7.38;3.90;;;;;;;8.79;86.65;99320.50;4947005;28;20044;-62
2023/05/01 02:06:39;;;;;;;6.65;3.65;;;;;;;8.90;86.13;99323.44;4937665;28;20515;-62
2023/05/01 02:09:06;;;;;;;6.82;3.42;;;;;;;8.91;86.62;99325.91;4937048;28;20446;-62
2023/05/01 02:11:34;;;;;;;6.13;3.13;;;;;;;8.91;85.63;99320.53;4953411;28;20129;-62
2023/05/01 02:14:02;;;;;;;5.10;2.97;;;;;;;8.93;86.43;99317.63;4935720;28;20189;-62
2023/05/01 02:16:29;;;;;;;5.38;3.30;;;;;;;8.95;86.71;99315.53;4942725;28;20054;-61
2023/05/01 02:18:57;;;;;;;5.47;3.38;;;;;;;9.03;91.03;99316.00;4937639;29;20150;-61
2023/05/01 02:21:25;;;;;;;6.75;3.55;;;;;;;9.06;88.97;99318.25;4947133;28;20048;-62
2023/05/01 02:23:54;;;;;;;5.18;3.20;;;;;;;9.04;89.23;99312.31;4939268;28;20506;-62
2023/05/01 02:26:21;;;;;;;4.82;3.38;;;;;;;8.94;89.55;99304.03;4945607;28;20394;-61
2023/05/01 02:28:48;;;;;;;6.28;3.50;;;;;;;8.87;89.52;99303.31;4938313;28;20139;-62
2023/05/01 02:31:15;;;;;;;6.60;3.38;;;;;;;8.90;90.46;99302.88;4938994;28;20056;-62
2023/05/01 02:33:42;;;;;;;5.57;3.58;;;;;;;8.94;91.30;99308.59;4948981;28;20052;-62
2023/05/01 02:36:12;;;;;;;8.15;3.45;;;;;;;9.08;90.36;99309.97;4940399;28;20040;-61
2023/05/01 02:38:39;;;;;;;5.85;3.60;;;;;;;8.91;90.46;99306.34;4946392;28;20510;-62
2023/05/01 02:41:07;;;;;;;7.05;3.40;;;;;;;8.72;88.67;99303.75;4943232;28;20159;-61
2023/05/01 02:43:35;;;;;;;8.25;3.20;;;;;;;8.71;88.58;99294.13;4949051;28;20519;-62
2023/05/01 02:46:03;;;;;;;6.53;3.40;;;;;;;8.74;88.79;99288.31;4940235;28;20383;-61
2023/05/01 02:48:31;;;;;;;4.90;3.15;;;;;;;8.74;88.52;99299.00;4940486;28;20525;-62
2023/05/01 02:50:58;;;;;;;5.65;3.38;;;;;;;9.02;90.02;99292.19;4944552;28;20187;-62
2023/05/01 02:53:25;;;;;;;5.75;3.13;;;;;;;9.14;88.48;99290.34;4957860;28;20061;-61
2023/05/01 02:55:58;;;;;;;5.50;3.33;;;;;;;9.10;90.11;99286.50;4938401;28;20039;-62
2023/05/01 02:58:27;;;;;;;7.32;3.45;;;;;;;8.99;89.53;99285.44;4944006;28;20102;-62
2023/05/01 03:00:54;;;;;;;6.60;3.55;;;;;;;9.00;89.46;99280.91;4947157;28;20126;-62
2023/05/01 03:03:24;;;;;;;5.15;3.50;;;;;;;8.95;90.45;99283.47;4937997;28;20044;-62
2023/05/01 03:05:51;;;;;;;5.63;3.47;;;;;;;8.89;88.71;99285.22;4936721;28;20585;-62
2023/05/01 03:08:18;;;;;;;7.13;3.55;;;;;;;8.83;89.01;99276.22;4940540;28;20043;-62
2023/05/01 03:10:45;;;;;;;7.32;3.22;;;;;;;8.77;88.56;99266.47;4946811;28;20074;-62
2023/05/01 03:13:13;;;;;;;5.40;3.10;;;;;;;8.74;89.96;99272.28;4939786;28;20463;-62
2023/05/01 03:15:41;;;;;;;5.60;3.30;;;;;;;8.94;90.08;99268.47;4938746;28;20127;-61
2023/05/01 03:18:08;;;;;;;4.78;2.83;;;;;;;9.17;90.36;99276.50;4944405;28;20047;-62
2023/05/01 03:20:38;;;;;;;8.15;3.70;;;;;;;9.14;88.56;99266.28;4944141;28;20051;-62
2023/05/01 03:23:06;;;;;;;4.97;3.15;;;;;;;9.10;89.41;99265.09;4941843;28;20039;-62
2023/05/01 03:25:34;;;;;;;5.18;3.22;;;;;;;9.10;90.55;99264.31;4954557;28;20046;-62
2023/05/01 03:28:06;;;;;;;4.60;3.13;;;;;;;8.99;92.85;99263.25;4948494;28;20486;-62
2023/05/01 03:30:35;;;;;;;5.75;3.47;;;;;;;8.76;94.70;99261.34;4941379;28;20048;-62
2023/05/01 03:33:04;;;;;;;5.07;3.00;;;;;;;8.82;93.71;99261.25;4944192;28;20130;-61
2023/05/01 03:35:36;;;;;;;6.32;3.65;;;;;;;8.72;92.57;99252.97;4940744;28;20106;-62
2023/05/01 03:38:05;;;;;;;8.52;3.55;;;;;;;8.76;91.44;99254.16;4947728;28;20152;-61
2023/05/01 03:40:55;;;;;;;5.53;3.10;;;;;;;8.83;90.57;99254.84;4911721;28;20092;-62
2023/05/01 03:43:41;;;;;;;5.90;3.28;;;;;;;9.06;91.39;99247.88;4941092;28;20541;-61
2023/05/01 03:46:17;;;;;;;5.32;3.35;;;;;;;9.05;89.46;99247.09;4950033;28;20138;-62
2023/05/01 03:48:45;;;;;;;5.28;3.30;;;;;;;9.07;90.91;99250.34;4951103;28;20044;-62
2023/05/01 03:51:16;;;;;;;6.55;4.00;;;;;;;9.18;91.05;99251.38;4942153;28;20046;-62
2023/05/01 03:53:43;;;;;;;6.15;3.22;;;;;;;9.00;91.69;99248.84;4943284;28;20043;-61
2023/05/01 03:56:11;;;;;;;6.32;3.08;;;;;;;9.18;87.76;99250.56;4945854;28;20055;-62
2023/05/01 03:58:38;;;;;;;6.30;3.30;;;;;;;9.19;85.10;99250.34;4952959;28;20198;-62
2023/05/01 04:01:05;;;;;;;5.88;3.03;;;;;;;9.23;86.61;99248.81;4946400;28;20046;-61
2023/05/01 04:03:40;;;;;;;5.18;2.97;;;;;;;9.41;85.08;99247.91;4944924;28;20043;-61
2023/05/01 04:06:12;;;;;;;5.05;3.15;;;;;;;9.48;85.62;99245.09;4937580;28;20050;-61
2023/05/01 04:08:39;;;;;;;6.47;3.47;;;;;;;9.51;85.63;99250.00;4949158;28;20095;-61
2023/05/01 04:11:06;;;;;;;9.82;3.47;;;;;;;9.50;87.07;99245.69;4930257;28;20059;-61
2023/05/01 04:13:34;;;;;;;5.57;3.25;;;;;;;9.49;85.50;99241.38;4944270;28;20043;-62
2023/05/01 04:16:06;;;;;;;5.20;3.28;;;;;;;9.44;83.26;99244.75;4952385;28;20146;-61
2023/05/01 04:18:33;;;;;;;5.43;3.17;;;;;;;9.57;81.92;99249.03;4948609;28;20367;-61
2023/05/01 04:21:00;;;;;;;9.25;3.47;;;;;;;9.53;80.39;99239.84;4940552;28;21328;-61
2023/05/01 04:23:29;;;;;;;7.72;3.25;;;;;;;9.58;79.44;99245.31;4935199;28;20374;-61
2023/05/01 04:25:59;;;;;;;5.68;3.00;;;;;;;9.64;78.77;99247.06;4934151;29;20102;-61
2023/05/01 04:28:26;;;;;;;5.43;3.30;;;;;;;9.63;79.58;99247.28;4946656;28;20513;-61
2023/05/01 04:30:54;;;;;;;5.57;3.45;;;;;;;9.59;79.32;99246.94;4945894;28;20048;-61
2023/05/01 04:33:22;;;;;;;5.82;3.28;;;;;;;9.70;80.11;99246.09;4948694;28;20558;-61
2023/05/01 04:35:50;;;;;;;7.03;3.42;;;;;;;9.68;77.90;99256.25;4940896;28;20474;-61
2023/05/01 04:38:19;;;;;;;6.63;3.35;;;;;;;9.67;78.18;99245.78;4943738;28;20516;-61
2023/05/01 04:40:47;;;;;;;6.50;3.30;;;;;;;9.71;77.73;99239.72;4948221;28;20488;-61
2023/05/01 04:43:15;;;;;;;5.45;3.13;;;;;;;9.69;76.65;99249.84;4949186;28;20599;-61
2023/05/01 04:45:47;;;;;;;6.93;3.20;;;;;;;9.77;77.73;99242.50;4932619;28;20049;-61
2023/05/01 04:48:14;;;;;;;5.43;3.30;;;;;;;9.64;77.26;99243.56;4935920;28;20052;-63
2023/05/01 04:50:42;;;;;;;4.40;3.08;;;;;;;9.74;77.07;99237.63;4930193;28;20047;-61
2023/05/01 04:53:10;;;;;;;5.82;3.10;;;;;;;9.64;77.67;99238.22;4939955;28;20044;-62
2023/05/01 04:55:37;;;;;;;4.85;3.08;;;;;;;9.77;75.71;99239.81;4950286;28;20070;-61
2023/05/01 04:58:14;;;;;;;6.97;3.10;;;;;;;9.78;75.67;99238.75;4944644;28;20443;-62
2023/05/01 05:00:46;;;;;;;7.97;3.50;;;;;;;9.80;76.33;99237.47;4941255;28;20063;-62
2023/05/01 05:03:20;;;;;;;6.57;3.45;;;;;;;9.83;76.42;99236.97;4944697;28;20058;-62
2023/05/01 05:05:47;;;;;;;4.28;2.88;;;;;;;9.87;77.84;99243.50;4951822;28;20059;-62
2023/05/01 05:08:15;;;;;;;7.45;2.90;;;;;;;9.83;76.90;99241.53;4943142;28;20131;-62
2023/05/01 05:10:47;;;;;;;7.32;3.55;;;;;;;9.92;78.91;99246.28;4953767;28;20047;-61
2023/05/01 05:13:25;;;;;;;6.55;3.05;;;;;;;9.90;77.06;99240.34;4940266;28;20229;-61
2023/05/01 05:16:09;;;;;;;7.60;3.08;;;;;;;10.03;77.63;99244.59;4938055;28;20102;-62
2023/05/01 05:18:41;;;;;;;5.50;3.50;;;;;;;9.76;85.49;99241.69;4940738;28;20539;-62
2023/05/01 05:21:09;;;;;;;7.63;3.60;;;;;;;9.87;84.28;99246.19;4944818;28;20053;-62
2023/05/01 05:23:38;;;;;;;4.85;3.03;;;;;;;10.03;80.69;99246.47;4930874;29;20130;-62
2023/05/01 05:26:25;;;;;;;6.07;3.42;;;;;;;10.07;78.83;99253.81;4950004;28;20106;-62
2023/05/01 05:28:54;;;;;;;7.88;3.10;;;;;;;10.01;78.73;99249.41;4942788;28;20664;-62
2023/05/01 05:31:22;;;;;;;6.95;3.67;;;;;;;10.18;78.88;99251.31;4947894;28;20114;-63
2023/05/01 05:33:49;;;;;;;5.78;3.45;;;;;;;9.99;78.65;99256.88;4935518;28;20051;-62
2023/05/01 05:36:17;;;;;;;5.13;3.13;;;;;;;9.95;78.16;99247.66;4941638;28;20052;-62
2023/05/01 05:38:45;;;;;;;6.20;3.03;;;;;;;10.11;78.21;99254.97;4928710;29;20402;-62
2023/05/01 05:41:16;;;;;;;6.63;3.53;;;;;;;10.10;76.56;99247.97;4946508;28;20051;-62
2023/05/01 05:43:44;;;;;;;5.82;3.25;;;;;;;10.35;76.50;99247.66;4951136;28;20071;-62
2023/05/01 05:46:14;;;;;;;6.13;3.38;;;;;;;10.56;75.83;99238.13;4926180;28;20071;-62
2023/05/01 05:48:42;;;;;;;7.28;3.00;;;;;;;10.54;75.47;99236.75;4942566;28;20047;-62
2023/05/01 05:51:12;;;;;;;5.97;3.42;;;;;;;10.64;75.24;99236.09;4949058;28;20402;-62
2023/05/01 05:53:40;;;;;;;5.53;3.20;;;;;;;10.78;75.44;99237.38;4939259;28;20508;-62
2023/05/01 05:56:29;;;;;;;8.30;3.72;;;;;;;10.76;74.20;99240.34;4950980;28;20305;-62
2023/05/01 05:58:57;;;;;;;5.95;2.80;;;;;;;10.79;75.93;99233.66;4936003;28;20142;-62
2023/05/01 06:01:25;;;;;;;7.88;3.50;;;;;;;10.78;73.93;99232.03;4950162;28;20430;-62
2023/05/01 06:03:52;;;;;;;6.15;3.20;;;;;;;10.82;74.13;99233.19;4941437;28;20115;-62
2023/05/01 06:06:20;;;;;;;8.38;3.13;;;;;;;11.01;76.17;99231.06;4936813;28;20043;-62
2023/05/01 06:08:47;;;;;;;6.72;3.25;;;;;;;11.05;74.73;99226.81;4943934;28;20052;-62
2023/05/01 06:11:18;;;;;;;6.93;3.10;;;;;;;11.14;72.36;99221.88;4952548;28;20044;-62
2023/05/01 06:13:45;;;;;;;4.40;3.03;;;;;;;11.12;71.51;99232.03;4942861;28;20047;-62
2023/05/01 06:16:14;;;;;;;10.18;3.28;;;;;;;11.00;70.84;99230.22;4943456;28;20514;-62
2023/05/01 06:18:42;;;;;;;8.45;3.17;;;;;;;11.05;70.79;99221.47;4939585;28;20051;-62
2023/05/01 06:21:09;;;;;;;7.18;3.00;;;;;;;11.18;73.36;99229.19;4945001;28;20051;-62
2023/05/01 06:23:37;;;;;;;6.50;2.88;;;;;;;11.53;69.69;99228.06;4950736;28;20089;-62
2023/05/01 06:26:23;;;;;;;6.10;3.00;;;;;;;11.40;71.53;99226.50;4940966;28;20063;-63
2023/05/01 06:28:50;;;;;;;6.95;2.92;;;;;;;10.98;71.58;99221.66;4942852;28;20055;-62
2023/05/01 06:31:18;;;;;;;8.07;3.15;;;;;;;11.45;71.52;99215.03;4949474;28;20067;-62
2023/05/01 06:33:51;;;;;;;4.88;2.95;;;;;;;11.77;70.63;99223.22;4941885;28;20138;-62
2023/05/01 06:36:30;;;;;;;5.18;2.83;;;;;;;12.09;68.32;99220.69;4936296;28;21191;-62
2023/05/01 06:38:59;;;;;;;5.90;2.90;;;;;;;11.63;70.86;99216.59;4939266;28;20055;-62
2023/05/01 06:41:27;;;;;;;8.02;2.95;;;;;;;12.18;67.36;99217.53;4945881;28;20506;-62
2023/05/01 06:43:54;;;;;;;6.28;3.38;;;;;;;11.68;68.77;99219.34;4938045;28;20090;-62
2023/05/01 06:46:21;;;;;;;5.78;2.70;;;;;;;12.11;67.46;99222.31;4936724;28;20146;-62
2023/05/01 06:48:49;;;;;;;5.30;3.00;;;;;;;12.30;66.22;99219.03;4943276;28;20447;-62
2023/05/01 06:51:17;;;;;;;5.82;2.83;;;;;;;12.88;67.33;99215.72;4944509;28;20155;-62
2023/05/01 06:53:46;;;;;;;4.65;2.95;;;;;;;12.94;64.13;99214.72;4938280;28;20047;-62
2023/05/01 06:56:13;;;;;;;8.05;3.35;;;;;;;13.13;63.78;99215.13;4952747;28;20047;-62
2023/05/01 06:58:43;;;;;;;5.63;2.95;;;;;;;13.02;64.17;99210.72;4940372;28;20043;-62
2023/05/01 07:01:10;;;;;;;5.38;2.83;;;;;;;13.53;62.25;99217.25;4946795;28;20048;-62
2023/05/01 07:03:37;;;;;;;6.68;3.40;;;;;;;13.37;59.74;99224.44;4949561;28;20057;-62
2023/05/01 07:06:05;;;;;;;5.70;3.10;;;;;;;14.57;57.43;99222.69;4919047;29;20086;-62
2023/05/01 07:08:37;;;;;;;8.18;2.80;;;;;;;15.39;54.71;99213.72;4945912;28;20062;-62
2023/05/01 07:11:05;;;;;;;7.35;3.38;;;;;;;14.81;55.09;99225.66;4949428;28;20047;-62
2023/05/01 07:13:32;;;;;;;4.20;2.65;;;;;;;15.26;55.39;99215.91;4942390;28;20256;-63
2023/05/01 07:16:01;;;;;;;5.72;3.05;;;;;;;15.90;53.46;99214.38;4944951;28;20062;-62
2023/05/01 07:18:28;;;;;;;5.88;3.28;;;;;;;15.23;54.19;99221.84;4959501;28;20691;-63
2023/05/01 07:20:55;;;;;;;5.00;2.65;;;;;;;14.75;56.35;99217.84;4945795;28;20442;-63
2023/05/01 07:23:24;;;;;;;6.53;2.90;;;;;;;14.96;55.63;99211.34;4948192;28;20399;-63
2023/05/01 07:25:55;;;;;;;7.55;3.25;;;;;;;15.15;54.74;99216.19;4940636;28;20382;-63
2023/05/01 07:28:24;;;;;;;4.55;2.70;;;;;;;15.58;54.48;99211.22;4945639;28;20606;-62
2023/05/01 07:30:51;;;;;;;5.80;2.85;;;;;;;14.87;55.40;99219.19;4957093;28;20046;-63
2023/05/01 07:33:18;;;;;;;5.10;2.92;;;;;;;14.31;56.93;99216.44;4940987;28;20048;-62
2023/05/01 07:35:46;;;;;;;5.03;3.00;;;;;;;14.01;58.77;99215.28;4933235;28;20080;-62
2023/05/01 07:38:13;;;;;;;5.50;3.00;;;;;;;14.42;56.37;99212.66;4949468;28;20048;-62
2023/05/01 07:40:42;;;;;;;6.75;3.00;;;;;;;14.77;54.86;99211.09;4939438;28;20059;-62
2023/05/01 07:43:11;;;;;;;5.75;2.95;;;;;;;16.60;51.58;99200.69;4947655;28;20043;-62
2023/05/01 07:45:38;;;;;;;7.53;3.20;;;;;;;15.41;53.67;99204.25;4945455;28;20046;-62
2023/05/01 07:48:06;;;;;;;8.02;2.95;;;;;;;15.31;55.53;99201.59;4953186;28;20043;-62
2023/05/01 07:50:33;;;;;;;6.03;3.50;;;;;;;14.14;59.70;99210.47;4953944;28;20047;-62
2023/05/01 07:53:00;;;;;;;6.60;3.08;;;;;;;14.09;60.40;99202.38;4944048;28;20170;-62
2023/05/01 07:55:28;;;;;;;6.88;3.00;;;;;;;13.28;61.47;99198.25;4942414;28;20047;-62
2023/05/01 07:57:55;;;;;;;7.68;3.20;;;;;;;13.99;60.15;99203.97;4955316;28;20447;-62
2023/05/01 08:00:24;;;;;;;5.78;2.88;;;;;;;14.88;57.11;99207.31;4941622;28;20036;-62
2023/05/01 08:02:51;;;;;;;6.13;3.05;;;;;;;15.48;55.97;99206.66;4951806;28;20066;-62
2023/05/01 08:05:18;;;;;;;4.90;2.70;;;;;;;14.13;60.19;99203.47;4934489;28;20126;-62
2023/05/01 08:07:46;;;;;;;4.95;3.00;;;;;;;14.60;59.01;99207.84;4931338;28;20426;-62
2023/05/01 08:10:13;;;;;;;5.53;3.03;;;;;;;14.78;58.15;99207.34;4940145;28;20043;-62
2023/05/01 08:12:41;;;;;;;5.10;2.95;;;;;;;14.78;56.62;99217.31;4938864;28;21291;-62
2023/05/01 08:15:10;;;;;;;4.70;3.03;;;;;;;14.59;57.19;99211.63;4942074;28;20047;-62
2023/05/01 08:17:39;;;;;;;6.72;3.15;;;;;;;14.70;55.57;99209.75;4942539;28;20492;-62
2023/05/01 08:20:07;;;;;;;5.60;3.13;;;;;;;13.96;58.24;99209.06;4940343;28;20073;-62
2023/05/01 08:22:35;;;;;;;7.85;2.97;;;;;;;14.58;57.12;99208.13;4941675;28;20043;-62
2023/05/01 08:25:03;;;;;;;8.30;2.67;;;;;;;14.46;57.84;99205.66;4942199;28;20106;-62
2023/05/01 08:27:31;;;;;;;6.65;2.90;;;;;;;14.41;57.80;99208.34;4941326;28;20038;-62
2023/05/01 08:30:01;;;;;;;5.78;3.00;;;;;;;13.93;60.25;99198.84;4937059;28;20119;-62
2023/05/01 08:32:28;;;;;;;5.60;3.15;;;;;;;13.17;62.34;99208.94;4955341;28;20126;-62
2023/05/01 08:34:57;;;;;;;5.40;3.20;;;;;;;13.78;60.53;99205.78;4939475;28;20582;-62
2023/05/01 08:37:24;;;;;;;6.13;3.08;;;;;;;13.55;61.87;99204.34;4940877;28;20506;-62
2023/05/01 08:39:51;;;;;;;9.55;3.65;;;;;;;14.44;61.40;99204.31;4941166;28;20413;-62
2023/05/01 08:42:18;;;;;;;6.30;3.30;;;;;;;14.95;57.05;99200.81;4940512;28;20134;-62
2023/05/01 08:44:45;;;;;;;5.68;3.28;;;;;;;14.56;56.47;99196.00;4940670;28;20081;-62
2023/05/01 08:47:17;;;;;;;7.75;3.30;;;;;;;15.19;53.92;99193.78;4939900;28;20051;-62
2023/05/01 08:49:45;;;;;;;6.40;3.08;;;;;;;16.68;51.15;99193.03;4942249;28;20054;-62
2023/05/01 08:52:16;;;;;;;19.67;9.13;;;;;;;16.71;51.58;99195.19;4943028;28;20040;-62
2023/05/01 08:54:45;;;;;;;7.38;4.30;;;;;;;17.28;51.14;99199.00;4938306;28;20482;-62
2023/05/01 08:57:12;;;;;;;6.13;2.92;;;;;;;17.85;50.45;99199.19;4942374;28;20035;-62
2023/05/01 08:59:42;;;;;;;6.38;2.92;;;;;;;18.27;48.09;99198.31;4936851;28;20044;-62
2023/05/01 09:02:09;;;;;;;;;;;;;;;18.82;47.07;99197.75;4949309;28;20579;-62
2023/05/01 09:04:38;;;;;;;3.60;2.65;;;;;;;18.39;48.82;99191.63;4946114;28;19965;-62
2023/05/01 09:07:05;;;;;;;6.18;3.05;;;;;;;17.23;50.23;99196.34;4939978;28;20127;-63
2023/05/01 09:09:34;;;;;;;6.97;3.30;;;;;;;16.85;51.19;99193.47;4942432;28;20211;-63
2023/05/01 09:12:06;;;;;;;6.32;3.20;;;;;;;15.88;52.42;99197.63;4939994;28;20063;-62
2023/05/01 09:14:33;;;;;;;7.03;3.08;;;;;;;16.79;52.44;99191.88;4941708;28;20482;-62
2023/05/01 09:17:01;;;;;;;9.50;3.30;;;;;;;17.59;50.81;99185.91;4951764;28;20460;-62
2023/05/01 09:19:35;;;;;;;6.13;3.03;;;;;;;17.65;49.62;99190.19;4950153;28;20497;-62
2023/05/01 09:22:02;;;;;;;6.15;3.00;;;;;;;16.79;52.14;99186.47;4936595;28;20052;-62
2023/05/01 09:24:29;;;;;;;5.43;3.10;;;;;;;16.30;52.49;99190.06;4952487;28;20053;-63
2023/05/01 09:26:58;;;;;;;6.38;3.47;;;;;;;17.39;51.43;99183.44;4938509;28;20105;-62
2023/05/01 09:29:39;;;;;;;6.25;3.08;;;;;;;17.48;51.81;99189.03;4937946;28;20092;-62
2023/05/01 09:32:16;;;;;;;5.93;3.13;;;;;;;17.26;51.49;99184.94;4940229;28;20051;-62
2023/05/01 09:34:47;;;;;;;5.68;3.45;;;;;;;17.20;51.38;99186.09;4934736;28;20082;-62
2023/05/01 09:37:24;;;;;;;6.82;3.10;;;;;;;16.43;53.15;99188.66;4942276;28;20035;-64
2023/05/01 09:40:04;;;;;;;4.78;3.00;;;;;;;17.82;50.66;99178.88;4938954;28;20043;-63
2023/05/01 09:42:33;;;;;;;4.97;3.10;;;;;;;17.33;50.29;99173.75;4940565;28;20082;-63
2023/05/01 09:45:00;;;;;;;6.93;3.03;;;;;;;17.09;51.34;99174.53;4938666;28;20438;-63
2023/05/01 09:47:28;;;;;;;6.53;2.92;;;;;;;17.22;50.37;99179.28;4946160;28;20473;-62
2023/05/01 09:49:56;;;;;;;5.13;3.08;;;;;;;17.39;50.61;99170.69;4937377;28;20095;-62
2023/05/01 09:52:23;;;;;;;5.30;3.10;;;;;;;18.11;49.72;99178.72;4950085;28;20410;-62
2023/05/01 09:54:50;;;;;;;6.30;3.30;;;;;;;18.77;48.79;99173.41;4941034;28;20134;-62
2023/05/01 09:57:17;;;;;;;7.40;3.10;;;;;;;18.51;47.96;99175.69;4939371;28;20054;-62
2023/05/01 09:59:52;;;;;;;5.53;3.30;;;;;;;16.19;53.87;99170.41;4940495;28;20043;-62
2023/05/01 10:02:28;;;;;;;5.13;3.03;;;;;;;16.39;53.55;99169.44;4936195;28;20043;-62
2023/05/01 10:05:00;;;;;;;6.25;3.42;;;;;;;17.61;51.13;99175.56;4931721;28;20094;-62
2023/05/01 10:07:27;;;;;;;7.72;3.50;;;;;;;17.72;49.67;99164.59;4939975;28;20070;-62
2023/05/01 10:09:54;;;;;;;4.88;3.00;;;;;;;17.84;47.68;99167.72;4934720;28;20043;-62
2023/05/01 10:12:25;;;;;;;4.93;3.30;;;;;;;18.74;49.04;99166.63;4936115;28;20552;-62
2023/05/01 10:14:54;;;;;;;6.60;3.40;;;;;;;19.02;46.03;99166.72;4942222;28;20043;-62
2023/05/01 10:17:21;;;;;;;6.28;3.67;;;;;;;17.86;47.16;99171.75;4941023;28;20427;-62
2023/05/01 10:19:49;;;;;;;5.30;3.20;;;;;;;18.14;48.13;99171.13;4936308;28;20048;-63
2023/05/01 10:22:16;;;;;;;5.63;3.20;;;;;;;17.89;49.26;99167.66;4934534;28;20406;-63
2023/05/01 10:24:46;;;;;;;5.75;3.42;;;;;;;18.53;47.60;99165.34;4932551;28;20047;-62
2023/05/01 10:27:15;;;;;;;8.05;3.53;;;;;;;18.73;48.17;99162.31;4938165;28;20147;-63
2023/05/01 10:29:43;;;;;;;5.95;3.70;;;;;;;19.04;47.30;99163.69;4936184;28;20242;-63
2023/05/01 10:32:13;;;;;;;5.18;2.97;;;;;;;19.89;45.95;99175.06;4937317;28;20430;-63
2023/05/01 10:34:47;;;;;;;4.85;3.05;;;;;;;20.33;45.27;99160.75;4937130;28;20054;-61
2023/05/01 10:37:18;;;;;;;12.00;3.78;;;;;;;19.28;47.44;99160.81;4938917;28;20083;-63
2023/05/01 10:39:48;;;;;;;8.25;3.40;;;;;;;20.55;45.72;99159.16;4931864;28;20075;-61
2023/05/01 10:42:16;;;;;;;5.65;3.25;;;;;;;19.54;47.30;99155.66;4941060;28;20510;-61
2023/05/01 10:44:48;;;;;;;7.38;3.35;;;;;;;19.01;47.91;99162.38;4939283;28;20071;-63
2023/05/01 10:47:48;;;;;;;5.75;3.55;;;;;;;19.76;48.59;99165.84;4933428;28;20046;-62
2023/05/01 10:50:15;;;;;;;10.27;3.72;;;;;;;19.67;48.14;99146.72;4933990;28;20139;-64
2023/05/01 10:53:16;;;;;;;6.20;3.47;;;;;;;17.48;53.34;99146.50;4943373;28;20052;-63
2023/05/01 10:55:45;;;;;;;4.88;3.30;;;;;;;17.35;51.89;99153.41;4936690;28;20075;-63
2023/05/01 10:58:15;;;;;;;6.40;3.42;;;;;;;16.53;53.50;99139.88;4938932;28;20158;-63
2023/05/01 11:00:43;;;;;;;10.75;3.90;;;;;;;17.85;52.22;99140.34;4941343;28;20457;-63
2023/05/01 11:03:37;;;;;;;10.52;6.10;;;;;;;19.48;50.09;99138.66;4931060;28;20047;-63
2023/05/01 11:06:05;;;;;;;7.03;3.72;;;;;;;19.22;48.60;99134.81;4937779;28;20047;-63
2023/05/01 11:08:33;;;;;;;5.38;3.55;;;;;;;18.92;48.45;99137.00;4941235;28;20035;-63
2023/05/01 11:11:35;;;;;;;4.93;3.80;;;;;;;16.97;52.53;99128.94;4938365;28;20052;-63
2023/05/01 11:14:03;;;;;;;6.13;3.58;;;;;;;17.78;51.43;99129.03;4935773;28;20043;-63
2023/05/01 11:16:50;;;;;;;7.07;3.40;;;;;;;18.37;49.00;99131.41;4937504;28;20047;-63
2023/05/01 11:19:51;;;;;;;8.95;3.92;;;;;;;19.09;49.05;99120.94;4938173;28;20051;-62
2023/05/01 11:22:19;;;;;;;6.82;3.53;;;;;;;17.58;50.87;99126.59;4944403;28;20091;-62
2023/05/01 11:24:46;;;;;;;6.03;3.55;;;;;;;17.62;51.70;99123.00;4930190;28;20604;-63
2023/05/01 11:27:15;;;;;;;9.48;3.85;;;;;;;17.27;52.54;99116.09;4935493;28;20040;-62
2023/05/01 11:29:55;;;;;;;6.05;3.75;;;;;;;18.16;50.38;99120.91;4934723;28;20044;-62
2023/05/01 11:32:26;;;;;;;6.60;3.70;;;;;;;19.27;48.21;99110.28;4942016;28;20052;-62
2023/05/01 11:34:58;;;;;;;5.72;3.47;;;;;;;18.87;48.79;99107.25;4936166;28;20059;-63
2023/05/01 11:37:44;;;;;;;5.70;3.58;;;;;;;19.49;47.91;99109.56;4944798;28;20052;-63
2023/05/01 11:40:22;;;;;;;5.05;3.28;;;;;;;20.30;43.90;99101.50;4938364;28;20055;-63
2023/05/01 11:42:50;;;;;;;5.20;3.13;;;;;;;20.92;41.81;99113.53;4932293;28;20079;-62
2023/05/01 11:45:18;;;;;;;5.55;3.20;;;;;;;20.44;40.54;99104.13;4945997;28;20321;-62
2023/05/01 11:47:50;;;;;;;4.00;3.00;;;;;;;17.84;45.59;99105.38;4941045;28;20043;-62
2023/05/01 11:50:20;;;;;;;4.50;2.85;;;;;;;18.46;40.81;99102.50;4944528;28;20142;-62